Niteroi, Brazil
Current Conditions -  °F | °C
As of 12:00 PM on Wednesday 26 Nov 2014 (Local Time) from SBRJ Reporting Station
Broken Clouds Broken Clouds  
Wind Chill: 86°   Ceiling: 10000
Heat Index: 93°   Visibility: 6mi
Dew Point: 73°   Wind: 7mph
Humidity: 66%   Direction: 10°N
Pressure: 29.74"   Gusts: NA
Location:  22.9°S, 43.13°W
Report Text: SBRJ 261400Z 01006KT 9999 FEW030 BKN100 30/23 Q1007
Loading
Personal Weather Stations






























Interactive Weather Map New forecast layout! Learn more

10-Day Weather Forecast

Advertisements
Track Severe Weather on mobile